createdAt,value
2022-11-10T00:02:29.990Z,5.27
2022-11-10T00:05:17.687Z,5.40
2022-11-10T00:08:07.019Z,4.87
2022-11-10T00:10:59.688Z,6.20
2022-11-10T00:14:03.199Z,5.43
2022-11-10T00:17:05.305Z,5.10
2022-11-10T00:19:52.458Z,6.77
2022-11-10T00:22:40.044Z,5.13
2022-11-10T00:25:28.919Z,6.77
2022-11-10T00:28:15.209Z,7.63
2022-11-10T00:31:07.289Z,6.33
2022-11-10T00:33:53.815Z,6.33
2022-11-10T00:36:40.871Z,6.97
2022-11-10T00:39:27.761Z,5.90
2022-11-10T00:42:15.766Z,5.77
2022-11-10T00:45:02.567Z,5.50
2022-11-10T00:47:49.188Z,6.67
2022-11-10T00:50:36.614Z,4.80
2022-11-10T00:53:23.280Z,6.47
2022-11-10T00:56:10.483Z,5.87
2022-11-10T00:58:58.387Z,6.27
2022-11-10T01:01:45.665Z,6.77
2022-11-10T01:04:32.357Z,6.10
2022-11-10T01:07:18.774Z,7.37
2022-11-10T01:10:06.304Z,5.87
2022-11-10T01:12:52.986Z,5.67
2022-11-10T01:15:42.780Z,6.67
2022-11-10T01:18:29.334Z,5.53
2022-11-10T01:21:16.091Z,5.60
2022-11-10T01:24:02.587Z,4.73
2022-11-10T01:26:49.745Z,5.03
2022-11-10T01:29:36.515Z,6.33
2022-11-10T01:32:24.390Z,5.90
2022-11-10T01:35:11.063Z,0.70
2022-11-10T01:37:57.735Z,1.40
2022-11-10T01:40:44.817Z,1.43
2022-11-10T01:43:32.252Z,1.50
2022-11-10T01:46:19.475Z,1.60
2022-11-10T01:49:07.782Z,1.70
2022-11-10T01:51:58.928Z,0.73
2022-11-10T01:54:48.844Z,1.20
2022-11-10T01:57:35.859Z,1.40
2022-11-10T02:00:23.217Z,0.70
2022-11-10T02:03:14.737Z,0.70
2022-11-10T02:06:02.795Z,0.60
2022-11-10T02:08:51.483Z,0.70
2022-11-10T02:11:39.568Z,1.50
2022-11-10T02:14:26.434Z,2.03
2022-11-10T02:17:13.462Z,0.50
2022-11-10T02:20:02.502Z,0.37
2022-11-10T02:22:50.344Z,1.17
2022-11-10T02:25:36.919Z,0.40
2022-11-10T02:28:23.692Z,0.67
2022-11-10T02:31:10.404Z,0.73
2022-11-10T02:33:56.542Z,1.90
2022-11-10T02:36:43.727Z,0.70
2022-11-10T02:39:31.450Z,0.63
2022-11-10T02:42:18.071Z,0.20
2022-11-10T02:45:04.796Z,0.50
2022-11-10T02:47:51.887Z,0.60
2022-11-10T02:50:38.699Z,0.57
2022-11-10T02:53:25.193Z,0.47
2022-11-10T02:56:13.478Z,0.30
2022-11-10T02:59:00.079Z,0.40
2022-11-10T03:01:47.461Z,0.37
2022-11-10T03:04:34.245Z,0.30
2022-11-10T03:07:20.746Z,0.40
2022-11-10T03:10:09.213Z,2.23
2022-11-10T03:12:58.310Z,1.03
2022-11-10T03:15:44.971Z,0.30
2022-11-10T03:18:31.261Z,0.63
2022-11-10T03:21:18.089Z,0.60
2022-11-10T03:24:04.858Z,0.37
2022-11-10T03:26:51.864Z,0.60
2022-11-10T03:29:39.829Z,0.80
2022-11-10T03:32:26.457Z,0.60
2022-11-10T03:35:13.964Z,4.10
2022-11-10T03:38:00.370Z,2.77
2022-11-10T03:41:12.449Z,1.07
2022-11-10T03:43:53.112Z,0.83
2022-11-10T03:46:43.591Z,0.60
2022-11-10T03:49:30.724Z,0.67
2022-11-10T03:52:17.473Z,0.70
2022-11-10T03:55:04.302Z,0.67
2022-11-10T03:57:50.700Z,0.27
2022-11-10T04:00:36.846Z,0.33
2022-11-10T04:03:25.871Z,1.73
2022-11-10T04:06:30.894Z,1.77
2022-11-10T04:09:17.303Z,0.80
2022-11-10T04:12:25.064Z,1.37
2022-11-10T04:15:30.905Z,1.53
2022-11-10T04:18:24.682Z,2.00
2022-11-10T04:21:13.435Z,0.50
2022-11-10T04:23:59.797Z,0.57
2022-11-10T04:26:48.691Z,2.60
2022-11-10T04:29:35.410Z,0.93
2022-11-10T04:32:21.730Z,0.77
2022-11-10T04:35:09.630Z,2.30
2022-11-10T04:37:57.363Z,0.90
2022-11-10T04:40:43.575Z,1.40
2022-11-10T04:43:30.721Z,2.50
2022-11-10T04:46:24.015Z,2.33
2022-11-10T04:49:11.912Z,0.67
2022-11-10T04:51:58.279Z,1.00
2022-11-10T04:54:46.916Z,1.43
2022-11-10T04:57:33.263Z,1.27
2022-11-10T05:00:20.332Z,1.80
2022-11-10T05:03:08.639Z,1.80
2022-11-10T05:05:55.269Z,1.90
2022-11-10T05:08:42.569Z,1.23
2022-11-10T05:11:30.612Z,1.63
2022-11-10T05:14:16.751Z,2.47
2022-11-10T05:17:03.052Z,2.63
2022-11-10T05:19:49.614Z,2.03
2022-11-10T05:22:36.051Z,9.93
2022-11-10T05:25:22.882Z,3.60
2022-11-10T05:28:12.506Z,4.13
2022-11-10T05:30:59.802Z,3.90
2022-11-10T05:33:46.030Z,2.10
2022-11-10T05:36:32.794Z,2.77
2022-11-10T05:39:19.560Z,1.87
2022-11-10T05:42:05.820Z,2.50
2022-11-10T05:44:54.058Z,5.53
2022-11-10T05:47:40.866Z,8.13
2022-11-10T05:50:27.621Z,5.97
2022-11-10T05:53:14.355Z,4.77
2022-11-10T05:56:01.536Z,4.10
2022-11-10T05:58:47.674Z,3.40
2022-11-10T06:01:35.872Z,2.77
2022-11-10T06:04:22.439Z,2.30
2022-11-10T06:07:09.248Z,3.77
2022-11-10T06:09:55.986Z,5.77
2022-11-10T06:12:42.233Z,4.23
2022-11-10T06:15:29.613Z,3.67
2022-11-10T06:18:17.634Z,5.03
2022-11-10T06:21:05.014Z,3.17
2022-11-10T06:23:51.978Z,5.60
2022-11-10T06:26:38.638Z,4.30
2022-11-10T06:29:26.950Z,3.37
2022-11-10T06:32:13.563Z,3.13
2022-11-10T06:35:01.509Z,2.50
2022-11-10T06:37:57.179Z,4.17
2022-11-10T06:40:43.868Z,1.47
2022-11-10T06:43:30.455Z,1.93
2022-11-10T06:46:17.690Z,1.27
2022-11-10T06:49:03.857Z,2.00
2022-11-10T06:51:53.034Z,2.40
2022-11-10T06:54:39.681Z,1.70
2022-11-10T06:57:26.313Z,1.20
2022-11-10T07:00:14.637Z,1.53
2022-11-10T07:03:02.403Z,1.30
2022-11-10T07:05:49.915Z,1.13
2022-11-10T07:08:37.579Z,1.03
2022-11-10T07:11:24.409Z,0.60
2022-11-10T07:14:10.864Z,1.63
2022-11-10T07:16:57.415Z,0.60
2022-11-10T07:19:43.916Z,0.83
2022-11-10T07:22:30.550Z,2.13
2022-11-10T07:25:19.294Z,1.63
2022-11-10T07:28:07.374Z,1.83
2022-11-10T07:30:54.190Z,1.63
2022-11-10T07:33:40.275Z,1.53
2022-11-10T07:36:29.244Z,2.10
2022-11-10T07:39:15.611Z,2.20
2022-11-10T07:42:03.445Z,1.77
2022-11-10T07:44:49.565Z,2.17
2022-11-10T07:47:35.954Z,2.23
2022-11-10T07:50:23.509Z,2.33
2022-11-10T07:53:11.807Z,1.70
2022-11-10T07:55:59.811Z,3.27
2022-11-10T07:58:48.136Z,1.97
2022-11-10T08:01:35.019Z,1.53
2022-11-10T08:04:21.550Z,2.10
2022-11-10T08:07:08.097Z,2.20
2022-11-10T08:09:55.062Z,4.50
2022-11-10T08:12:41.273Z,3.23
2022-11-10T08:15:30.542Z,1.10
2022-11-10T08:18:19.669Z,1.70
2022-11-10T08:21:07.220Z,0.73
2022-11-10T08:23:53.348Z,0.97
2022-11-10T08:26:40.713Z,1.87
2022-11-10T08:29:27.618Z,2.77
2022-11-10T08:32:15.572Z,2.40
2022-11-10T08:35:02.135Z,0.70
2022-11-10T08:37:48.351Z,2.50
2022-11-10T08:40:35.431Z,1.40
2022-11-10T08:43:22.001Z,0.80
2022-11-10T08:46:09.025Z,0.57
2022-11-10T08:48:56.642Z,1.07
2022-11-10T08:51:43.098Z,0.40
2022-11-10T08:54:29.805Z,1.53
2022-11-10T08:57:17.232Z,3.27
2022-11-10T09:00:04.261Z,0.80
2022-11-10T09:02:50.712Z,5.73
2022-11-10T09:05:39.020Z,0.60
2022-11-10T09:08:25.533Z,3.90
2022-11-10T09:11:12.594Z,0.70
2022-11-10T09:13:59.170Z,7.30
2022-11-10T09:16:46.160Z,2.70
2022-11-10T09:19:32.726Z,1.53
2022-11-10T09:22:21.783Z,5.67
2022-11-10T09:25:08.719Z,1.60
2022-11-10T09:27:54.935Z,1.50
2022-11-10T09:30:42.395Z,2.03
2022-11-10T09:33:28.929Z,1.10
2022-11-10T09:36:16.221Z,3.40
2022-11-10T09:39:04.050Z,0.97
2022-11-10T09:41:50.946Z,0.77
2022-11-10T09:44:46.642Z,0.80
2022-11-10T09:47:56.805Z,1.50
2022-11-10T09:50:49.900Z,0.73
2022-11-10T09:53:39.095Z,2.60
2022-11-10T09:56:33.562Z,9.00
2022-11-10T09:59:26.672Z,1.40
2022-11-10T10:02:24.091Z,3.90
2022-11-10T10:05:37.501Z,0.70
2022-11-10T10:08:31.779Z,0.70
2022-11-10T10:11:35.405Z,0.90
2022-11-10T10:14:44.440Z,0.60
2022-11-10T10:17:41.433Z,1.20
2022-11-10T10:20:36.876Z,1.63
2022-11-10T10:23:54.043Z,0.97
2022-11-10T10:26:41.706Z,1.07
2022-11-10T10:29:37.531Z,1.90
2022-11-10T10:32:25.022Z,2.63
2022-11-10T10:35:14.117Z,1.23
2022-11-10T10:38:03.323Z,4.57
2022-11-10T10:40:52.398Z,1.60
2022-11-10T10:43:41.287Z,1.60
2022-11-10T10:46:32.939Z,2.30
2022-11-10T10:49:31.183Z,0.93
2022-11-10T10:52:25.179Z,2.50
2022-11-10T10:55:13.965Z,1.30
2022-11-10T10:58:02.027Z,0.87
2022-11-10T11:00:52.733Z,1.50
2022-11-10T11:03:43.370Z,1.80
2022-11-10T11:06:32.391Z,0.67
2022-11-10T11:09:20.901Z,3.97
2022-11-10T11:12:09.277Z,0.63
2022-11-10T11:15:14.657Z,0.60
2022-11-10T11:18:04.478Z,0.50
2022-11-10T11:20:58.742Z,2.30
2022-11-10T11:24:03.686Z,0.60
2022-11-10T11:26:58.075Z,0.67
2022-11-10T11:29:59.230Z,1.30
2022-11-10T11:33:07.874Z,0.97
2022-11-10T11:36:02.633Z,0.83
2022-11-10T11:38:57.542Z,0.63
2022-11-10T11:41:50.276Z,2.13
2022-11-10T11:44:49.301Z,0.60
2022-11-10T11:47:47.252Z,1.57
2022-11-10T11:50:42.063Z,3.57
2022-11-10T11:53:45.426Z,1.87
2022-11-10T11:56:34.526Z,3.43
2022-11-10T11:59:34.758Z,1.13
2022-11-10T12:02:40.380Z,1.00
2022-11-10T12:05:36.835Z,0.97
2022-11-10T12:08:36.716Z,0.53
2022-11-10T12:11:36.636Z,2.33
2022-11-10T12:14:32.709Z,7.00
2022-11-10T12:17:29.094Z,2.00
2022-11-10T12:20:43.512Z,3.93
2022-11-10T12:23:40.176Z,0.57
2022-11-10T12:26:36.630Z,1.37
2022-11-10T12:29:31.547Z,0.40
2022-11-10T12:32:23.628Z,0.50
2022-11-10T12:35:16.016Z,2.80
2022-11-10T12:38:08.712Z,1.87
2022-11-10T12:41:03.348Z,0.57
2022-11-10T12:44:08.598Z,3.13
2022-11-10T12:46:59.212Z,0.53
2022-11-10T12:49:58.517Z,3.87
2022-11-10T12:52:51.700Z,1.37
2022-11-10T12:55:43.826Z,0.60
2022-11-10T12:58:32.241Z,2.13
2022-11-10T13:01:21.241Z,0.60
2022-11-10T13:04:07.682Z,1.07
2022-11-10T13:06:58.523Z,2.50
2022-11-10T13:09:45.587Z,0.70
2022-11-10T13:12:32.842Z,0.67
2022-11-10T13:15:48.099Z,1.33
2022-11-10T13:18:59.465Z,1.83
2022-11-10T13:22:13.259Z,2.03
2022-11-10T13:25:37.267Z,0.50
2022-11-10T13:29:01.254Z,5.50
2022-11-10T13:31:57.455Z,0.83
2022-11-10T13:34:45.259Z,0.57
2022-11-10T13:37:53.035Z,1.43
2022-11-10T13:40:41.232Z,0.97
2022-11-10T13:43:28.779Z,3.03
2022-11-10T13:46:16.322Z,1.17
2022-11-10T13:49:26.026Z,1.13
2022-11-10T13:52:17.942Z,1.50
2022-11-10T13:55:19.087Z,1.07
2022-11-10T13:58:09.345Z,2.63
2022-11-10T14:01:26.438Z,0.73
2022-11-10T14:04:42.074Z,6.37
2022-11-10T14:07:32.427Z,1.60
2022-11-10T14:10:27.582Z,0.53
2022-11-10T14:13:18.722Z,0.30
2022-11-10T14:16:16.980Z,3.37
2022-11-10T14:19:08.113Z,1.70
2022-11-10T14:21:58.633Z,0.47
2022-11-10T14:24:55.362Z,1.23
2022-11-10T14:27:42.401Z,0.90
2022-11-10T14:30:29.900Z,1.97
2022-11-10T14:33:16.950Z,0.93
2022-11-10T14:36:06.213Z,1.20
2022-11-10T14:38:54.797Z,0.33
2022-11-10T14:41:47.554Z,0.83
2022-11-10T14:44:35.315Z,3.40
2022-11-10T14:47:27.174Z,0.50
2022-11-10T14:50:19.870Z,0.57
2022-11-10T14:53:13.494Z,1.93
2022-11-10T14:56:03.771Z,2.50
2022-11-10T14:58:51.880Z,0.83
2022-11-10T15:01:42.258Z,0.67
2022-11-10T15:04:31.715Z,0.57
2022-11-10T15:07:18.842Z,0.20
2022-11-10T15:10:07.462Z,0.50
2022-11-10T15:13:07.348Z,2.27
2022-11-10T15:16:14.339Z,0.27
2022-11-10T15:19:23.284Z,2.00
2022-11-10T15:22:17.835Z,0.33
2022-11-10T15:25:11.182Z,1.80
2022-11-10T15:28:00.973Z,0.27
2022-11-10T15:30:54.157Z,0.37
2022-11-10T15:33:47.479Z,3.70
2022-11-10T15:36:39.405Z,0.20
2022-11-10T15:39:27.197Z,0.20
2022-11-10T15:42:16.227Z,0.67
2022-11-10T15:45:02.787Z,1.43
2022-11-10T15:47:50.564Z,1.53
2022-11-10T15:50:37.497Z,0.57
2022-11-10T15:53:28.385Z,0.30
2022-11-10T15:56:17.121Z,2.00
2022-11-10T15:59:04.416Z,0.20
2022-11-10T16:01:51.282Z,2.03
2022-11-10T16:04:39.446Z,0.43
2022-11-10T16:07:25.851Z,0.70
2022-11-10T16:10:13.016Z,0.53
2022-11-10T16:12:59.387Z,0.57
2022-11-10T16:15:46.326Z,0.87
2022-11-10T16:18:33.032Z,0.80
2022-11-10T16:21:22.680Z,3.10
2022-11-10T16:24:09.481Z,3.67
2022-11-10T16:26:55.962Z,8.23
2022-11-10T16:29:44.194Z,7.40
2022-11-10T16:32:30.656Z,1.57
2022-11-10T16:35:17.466Z,2.53
2022-11-10T16:38:15.140Z,2.60
2022-11-10T16:41:03.907Z,1.47
2022-11-10T16:43:51.642Z,1.63
2022-11-10T16:46:38.313Z,1.10
2022-11-10T16:49:29.671Z,1.63
2022-11-10T16:52:17.133Z,2.80
2022-11-10T16:55:05.991Z,4.53
2022-11-10T16:57:52.094Z,20.63
2022-11-10T17:00:40.720Z,11.60
2022-11-10T17:03:32.413Z,10.27
2022-11-10T17:06:19.976Z,8.37
2022-11-10T17:09:10.566Z,8.03
2022-11-10T17:11:58.147Z,6.17
2022-11-10T17:14:44.736Z,6.70
2022-11-10T17:17:31.398Z,9.07
2022-11-10T17:20:22.665Z,7.53
2022-11-10T17:23:09.216Z,7.73
2022-11-10T17:25:56.186Z,8.10
2022-11-10T17:28:44.354Z,6.93
2022-11-10T17:31:31.028Z,8.13
2022-11-10T17:34:18.547Z,7.33
2022-11-10T17:37:05.477Z,7.33
2022-11-10T17:39:51.834Z,6.90
2022-11-10T17:42:39.096Z,7.00
2022-11-10T17:45:29.976Z,5.80
2022-11-10T17:48:16.823Z,6.03
2022-11-10T17:51:03.102Z,4.47
2022-11-10T17:53:50.995Z,1.93
2022-11-10T17:56:37.194Z,2.17
2022-11-10T17:59:24.111Z,11.00
2022-11-10T18:02:12.157Z,1.37
2022-11-10T18:04:58.988Z,2.03
2022-11-10T18:07:46.256Z,0.53
2022-11-10T18:10:32.778Z,0.23
2022-11-10T18:13:19.756Z,1.07
2022-11-10T18:16:08.907Z,0.30
2022-11-10T18:18:58.686Z,0.37
2022-11-10T18:21:44.782Z,0.53
2022-11-10T18:24:31.580Z,0.50
2022-11-10T18:27:17.648Z,0.57
2022-11-10T18:30:06.362Z,0.73
2022-11-10T18:32:53.122Z,0.90
2022-11-10T18:35:41.531Z,3.50
2022-11-10T18:38:27.684Z,9.53
2022-11-10T18:41:31.660Z,8.60
2022-11-10T18:44:18.384Z,10.90
2022-11-10T18:47:05.087Z,7.83
2022-11-10T18:49:51.458Z,5.90
2022-11-10T18:52:39.101Z,5.73
2022-11-10T18:55:25.922Z,3.70
2022-11-10T18:58:12.214Z,4.37
2022-11-10T19:01:03.648Z,2.50
2022-11-10T19:03:50.896Z,9.27
2022-11-10T19:06:37.761Z,1.47
2022-11-10T19:09:25.578Z,2.47
2022-11-10T19:12:12.416Z,2.77
2022-11-10T19:14:59.006Z,1.80
2022-11-10T19:17:45.101Z,3.37
2022-11-10T19:20:31.564Z,4.47
2022-11-10T19:23:18.703Z,1.83
2022-11-10T19:26:09.949Z,2.07
2022-11-10T19:28:58.434Z,2.87
2022-11-10T19:31:45.235Z,2.53
2022-11-10T19:34:32.074Z,3.37
2022-11-10T19:37:18.859Z,2.87
2022-11-10T19:40:05.885Z,3.07
2022-11-10T19:42:53.775Z,4.63
2022-11-10T19:45:41.466Z,2.60
2022-11-10T19:48:28.036Z,2.43
2022-11-10T19:51:16.604Z,3.93
2022-11-10T19:54:05.100Z,5.10
2022-11-10T19:56:51.671Z,4.40
2022-11-10T19:59:39.484Z,3.77
2022-11-10T20:02:26.047Z,3.80
2022-11-10T20:05:16.303Z,2.00
2022-11-10T20:08:16.345Z,2.43
2022-11-10T20:11:05.282Z,2.63
2022-11-10T20:13:55.154Z,2.97
2022-11-10T20:16:42.909Z,4.07
2022-11-10T20:19:29.312Z,2.80
2022-11-10T20:22:15.534Z,4.50
2022-11-10T20:25:02.054Z,3.33
2022-11-10T20:27:48.239Z,4.97
2022-11-10T20:30:35.314Z,11.30
2022-11-10T20:33:24.361Z,5.90
2022-11-10T20:36:18.976Z,5.57
2022-11-10T20:39:06.799Z,3.33
2022-11-10T20:41:53.268Z,3.07
2022-11-10T20:44:40.671Z,2.90
2022-11-10T20:47:28.251Z,5.00
2022-11-10T20:50:19.292Z,3.90
2022-11-10T20:53:09.625Z,4.77
2022-11-10T20:56:00.871Z,5.40
2022-11-10T20:58:47.330Z,4.70
2022-11-10T21:01:34.104Z,5.67
2022-11-10T21:04:21.476Z,5.03
2022-11-10T21:07:09.351Z,8.40
2022-11-10T21:09:55.581Z,7.47
2022-11-10T21:12:50.848Z,9.27
2022-11-10T21:15:39.518Z,5.33
2022-11-10T21:18:27.616Z,4.87
2022-11-10T21:21:21.655Z,3.87
2022-11-10T21:24:10.462Z,2.87
2022-11-10T21:26:57.395Z,3.90
2022-11-10T21:29:43.874Z,3.17
2022-11-10T21:32:30.422Z,3.93
2022-11-10T21:35:17.084Z,3.90
2022-11-10T21:38:04.520Z,3.33
2022-11-10T21:40:52.442Z,3.50
2022-11-10T21:43:39.684Z,4.80
2022-11-10T21:46:26.371Z,3.43
2022-11-10T21:49:12.704Z,3.93
2022-11-10T21:51:59.145Z,3.27
2022-11-10T21:54:46.122Z,2.43
2022-11-10T21:57:34.369Z,2.53
2022-11-10T22:00:21.389Z,2.83
2022-11-10T22:03:07.485Z,2.57
2022-11-10T22:05:54.651Z,1.90
2022-11-10T22:08:42.230Z,1.87
2022-11-10T22:11:46.923Z,2.97
2022-11-10T22:14:51.701Z,4.17
2022-11-10T22:17:55.622Z,3.80
2022-11-10T22:20:42.564Z,4.83
2022-11-10T22:23:46.817Z,8.23
2022-11-10T22:26:33.172Z,8.03
2022-11-10T22:29:19.562Z,6.57
2022-11-10T22:32:07.563Z,8.30
2022-11-10T22:34:54.226Z,7.40
2022-11-10T22:37:40.351Z,7.20
2022-11-10T22:40:44.655Z,6.73
2022-11-10T22:43:48.594Z,5.27
2022-11-10T22:46:36.765Z,5.43
2022-11-10T22:49:25.802Z,5.37
2022-11-10T22:52:12.343Z,4.07
2022-11-10T22:54:59.277Z,3.50
2022-11-10T22:57:45.363Z,4.90
2022-11-10T23:00:32.220Z,6.17
2022-11-10T23:03:18.440Z,6.10
2022-11-10T23:06:07.707Z,6.57
2022-11-10T23:08:54.850Z,6.47
2022-11-10T23:11:41.736Z,5.43
2022-11-10T23:14:28.551Z,4.33
2022-11-10T23:17:14.781Z,5.30
2022-11-10T23:20:01.641Z,4.63
2022-11-10T23:22:48.977Z,8.17
2022-11-10T23:25:35.891Z,6.70
2022-11-10T23:28:21.994Z,4.17
2022-11-10T23:31:11.775Z,4.20
2022-11-10T23:33:58.578Z,4.20
2022-11-10T23:36:45.883Z,3.53
2022-11-10T23:39:33.896Z,4.20
2022-11-10T23:42:20.292Z,3.73
2022-11-10T23:45:08.419Z,21.67
2022-11-10T23:47:54.600Z,4.37
2022-11-10T23:50:41.522Z,4.70
2022-11-10T23:53:28.042Z,3.53
2022-11-10T23:56:17.387Z,4.57
2022-11-10T23:59:03.911Z,3.53
